Timeline UpdatesTrip UpdatesNews PostsPvt PostsTravel TipsAdmin PostsConv PostsFollowed PostsChat RequestsBlog PostsPNR Posts

Disclaimer
Search
 
 
Wed Sep 17, 2014 00:58:54 ISTHomeTrainsΣChainsAtlasPNRForumGalleryNewsFAQTripsMembersLoginFeedback
No Recent News for this Train
Other Trains in the News **new
Latest...
From 11.09.2013 to 9.11.2013........19024 Firozpur Janata Express will be terminated at Dadar.
Thu Sep 05, 2013 (07:07PM)
⇐ Return Journey: Train# 19023

19024/Firozpur - Mumbai Central Janta Express

Time-Table HAS CHANGED.
Sep 03 (9:40PM)
Change Departure Station:
Change Arrival Station:
Post a Train Travel TipPost a Train Travel Tip **new
Post a Comment/Question/Picture/VideoPost a Comment/Question/Picture/Video
Inaugural Run
Mon Oct 01, 1956
Pantry/Catering
✕ NO Pantry Car
✓ Catering Avbl
Catering from local vendors
RSA - Rake Sharing
Dedicated Rake.No RSA
Rake/Coach Composition
LOCO<SLR,GS,GS(MST),GS,S-1, S-2, S-3, S-4, S-5, S-6, S-7, S-8,GS,SLR,HCPV=14+1
Loco
TKD WDP-4/4B between FZR-NDLS, GZB WAP5 between NDLS-BCT
News    PNR    Forum    Time-Table    Availability    Fare Chart    Map    Arr/Dep History    Trips    Gallery    ΣChains    X/O    Timeline    
Travel Time: 12h 34m    34 halts    Distance: 567 km    Avg Speed: 45 km/hr
Type: Mail/Express
Zone: WR/Western
Departs @ 07:12 (Avg 21m late)
Platform# ???
SMTWTFS
Meghnagar/MGN 
Arrives @ 19:46 (Avg 8m late)
Platform# 5
SMTWTFS
Mumbai Dadar Western/DDR 

34 halts. 105 intermediate Stations between Meghnagar and Mumbai Dadar Western

Show ALL intermediate Stations  Show Old Time-Table

#CodeStation NameX/OArrivesAvgDepartsAvgHaltPFDay#KmSpeedElevZoneAddress
1FZRFirozpur Cantt. Junction (5)  -05:10 05:05+1211-1200.177200mNRFirozpur Cantt 152001, Punjab
2FDKFaridkot (3)  05:34 05:30+2205:36 05:32+222m11-1167.848202mNRFaridkot, Punjab
3KKPKot Kapura Junction (3)  05:50 05:48+2205:52 05:50+222m11-1155.1750mNRKotkapura, Punjab
4GJUTGangsar Jaitu (3)  06:07 06:03+2206:09 06:05+222m11-1138.847207mNRJaitu, Punjab
5GNAGoneana Bhai Jagta (3)X  06:23+2006:25+222m11-1124.634206mNRGoniana, Punjab
6BTIBathinda Junction (6)  06:55 06:47+807:05 07:00+1210 13m21-1112.389208mNRBathinda, Punjab
7MAURMaur  07:31 07:24+2507:33 07:26+252m--1-1076.867220mNRMaur Mandi, Punjab
8KTKLKotli Kalan  07:39 07:35-07:41 07:36-2 1m--1-1066.727219mNRState Highway 12A, Punjab
9MSZMansa  07:54 07:55+2407:56 07:57+242m--1-1058.181222mNRMansa, Punjab
10BLZBudhlada  08:09+2608:11+262m--1-1042.071223mNRBudhlada, Punjab
11BRZBareta  08:24+2608:26+272m--1-1026.657223mNRBareta, Punjab
12JHLJakhal Junction  08:43 08:41+2508:45 08:43+252m--1-1012.456225mNRJakhal, Haryana
13TUNTohana (2)  08:56+2708:58+272m--1-1000.276232mNRTohana, Haryana
14NRWNarwana Junction (4)X  09:18+2909:20+292m--1-974.770235mNRWay to Narwana, Haryana
15UCAUchana  09:33+3009:35+302m--1-959.545225mNRDistrict Jind, Haryana
16JINDJind Junction (3)  10:00+1910:05+195m--1-940.881222mNR126102., Haryana
17JNAJulana  10:27 10:24+2510:29 10:26+252m--1-915.165226mNRJulana, Haryana
18ROKRohtak Junction (3)  11:05 10:55+1811:08 11:00+183 5m--1-883.781220mNRRohtak, Haryana
19ISMIsmaila Haryana  11:26 11:14-11:28 11:16-2m--1-864.942221mNRNational Highway 10, Haryana
20SPZSampla  11:32 11:21+1711:34 11:23+172m--1-861.472222mNRSampla, Haryana
21BGZBahadurgarhX  11:49 11:38+2211:51 11:40+222m--1-843.458220mNRBahadurgarh, Haryana
22NNONangloi  12:03 11:53+2512:05 11:55+262m--1-830.928219mNRJJ Colony No 1, Delhi NCT
23MGLPMangolpuri  12:09 12:02-12:11 12:04-2m--1-827.721217mNROutter Ring Rd, Delhi NCT
24SSBShakur BastiX  12:21 12:16+2112:23 12:18+222m--1-823.532216mNRPitampura, Delhi NCT
25DKZDelhi KishanGanj (2)  12:36 12:31+2712:38 12:33+282m--1-816.511220mNRSarai Rohilla, Delhi NCT
26NDLSNew Delhi (16)XO13:05 12:55+2613:35 13:25+2630m71-812.625215mNRNew Delhi, Delhi NCT
27NZMDelhi Hazrat Nizamuddin (7)XO  13:49 13:43+3113:51 13:45+322m11-805.332209mNRNew Delhi 110013, Delhi NCT
28OKAOkhla (4)  13:57 13:52+3513:59 13:53+342 1m--1-801.660221mNRIshwar Nagar Mathura Road, Delhi NCT
29TKDTuglakabad (4)XO  14:06 13:59+3414:08 14:01+352m11-795.644213mNRNear Tughlakabad Metro Station, Delhi NCT
30FDBFaridabad (4)O  14:23 14:16+3114:25 14:18+342m31-784.544206mNRold Faridabad, Haryana
31BVHBallabgarh (5)  14:43 14:29+2714:45 14:31+272m--1-776.427203mNRFaridabad, Haryana
32PWLPalwal (8)  15:18+1615:20+172m--1-755.285200mNRPalwal, Haryana
33KSVKosi Kalan (3)X  15:50+4015:52+422m21-712.847189mNCRKosi Kalan, Uttar Pradesh
34CHJChata (4)X  16:03 16:05+4116:05 16:07+442m--1-702.535 NCRChhata, Uttar Pradesh
35MTJMathura Junction (10)  17:00+2117:05+285m31-671.380179mNCRMathura, Uttar Pradesh
36BTEBharatpur Junction (5)O  17:30+3717:35+375m31-637.872174mWCRBharatpur, Rajasthan
37BXNBayana Junction (3)X  18:10+3318:15+335m--1-595.891198mWCRBayana, Rajasthan
38FSPFateh SinghpuraX  18:28+3618:30+392m--1-576.144223mWCRState Highway 1, Rajasthan
39HANHindaun City (2)  18:48+3418:50+422m--1-562.961230mWCRKarauli, Rajasthan
40SMBJShri Mahabirji (3)X  19:00+4219:02+422m--1-552.754240mWCRKarauli, Rajasthan
41GGCGangapur City (3)  19:50 19:40+3119:55 19:45+385m21-518.668270mWCRGangapur, Rajasthan
42NNWNarayanpur Tatwara (2)  20:11 20:00+4020:12 20:02+411 2m--1-501.763256mWCRSawai Madhopur, Rajasthan
43MLZMalarnaXO  20:40 20:18+2820:42 20:20+292m21-484.940236mWCRSawai Madhopur, Rajasthan
44SWMSawai Madhopur Junction (4)  21:05+3621:10+415m21-454.778266mWCRSawai Madhopur, Rajasthan
45IDGIndargarh Sumerganj Mandi (2)  21:35 21:38+4521:37 21:40+462m--1-418.566247mWCRIndargarh, Rajasthan
46LKELakheri (3)X  21:47 21:50+4621:49 21:52+502m--1-407.544228mWCRBundi, Rajasthan
47KOTAKota Junction (5)  23:10 23:15+5323:20+5810 5m21-346.968256mWCRKota, Rajasthan
48RMARamganj Mandi Junction (3)X  00:23+5800:25+1:012m--2-275.657358mWCRRamganj Mandi, Rajasthan
49JHWJhalawar Road (3)XO  00:38+5900:40+1:002m--2-263.330361mWCRJhalawar City, Rajasthan
50BWMBhawani Mandi (3)X  01:13+4501:15+502m--2-246.874384mWCRBhawani Mandi, Madhya Pradesh
51SGZShamgarh (3)  01:42+5201:47+535m--2-213.350463mWCRMandsaur, Madhya Pradesh
52SVASuwasra (2)O  02:03+5002:05+522m--2-199.940450mWCRSuwasra, Madhya Pradesh
53CMUChau Mahla (3)  02:28+4202:30+442m12-184.520426mWCRJhalawar, Rajasthan
54VMAVikramgarh Alot (2)X  03:36+1303:38+152m12-162.740443mWCRKota Division, Madhya Pradesh
55MEPMahidpur Road  04:13 04:14+304:15+62 1m--2-138.841493mWCRGogapur, Madhya Pradesh
56NADNagda Junction (4)X  04:40+904:45+145m--2-121.764468mWRNagda, Madhya Pradesh
57KUHKhachrod (2)X  04:56 04:58+1804:58 05:00+182m--2-107.937497mWRUjjain, Madhya Pradesh
58RTMRatlam Junction (7)X  05:45+906:00+1215m42-80.373495mWRRatlam, Madhya Pradesh
59BMIBamnia (2)X  06:35 06:37+1906:37 06:38+192 1m--2-35.572392mWRBamnia, Madhya Pradesh
60THDRThandla Road (2)  06:59 07:01+2107:01 07:02+202 1m--2-8.060317mWRJhabua, Madhya Pradesh
61MGN»Meghnagar (3)»  07:08 07:10+2107:10 07:12+212m--20.086317mWRJhabua, Madhya Pradesh
62DHDDahod (3)X  07:35+2607:40+275m--233.168313mWRDahod, Gujarat
63LMKLimkheda  08:07 08:09+3008:09 08:10+302 1m--266.160205mWRLimkheda, Gujarat
64PPDPiplod Junction  08:16 08:18+3008:18 08:19+292 1m--274.079209mWRPiplod, Gujarat
65SATSant Road (2)X  08:26 08:28+3208:28 08:29+312 1m2285.920169mWROrwara, Gujarat
66GDAGodhra Junction (3)X  09:29 09:30+609:34 09:35+85m12106.279122mWRGodhra, Gujarat
67DRLDerol  09:53+1209:55+122m--2129.87981mWRKalol, Gujarat
68SMLASamlaya Junction (3)  10:13+1310:15+132m--2153.55367mWRVadodara, Gujarat
69BRCVadodara Junction (7)X10:45+1910:55+1810m12180.18936mWRVadodara 390005, Gujarat
70MYGMiyagam Karjan (2)  11:15+2811:17+272m22210.08329mWRKarjan, Gujarat
71PLJPalej (4)  11:28+2811:30+292m--2225.28029mWRPalej, Gujarat
72NIUNabipur (3)X  11:40+3411:42+332m--2238.65224mWRNabipur, Gujarat
73BHBharuch Junction (5)  11:56+2611:58+282m22250.66219mWRBharuch, Gujarat
74AKVAnkleshwar Junction (4)O  12:07+2612:09+252m22260.04819mWRAnkleshwar, Gujarat
75PAOPanoli (3)  12:22+2312:24+232m--2270.36229mWRPanoli, Gujarat
76KSBKosamba Junction (3)XO  12:32+2312:34+222m22278.55830mWRKosamba, Gujarat
77KIMKim (2)  12:42+2712:44+262m--2286.33118mWRNH 8, Gujarat
78STSurat (4)X  13:30+1313:35+145m22309.97119mWRSurat 395001, Gujarat
79MRLMaroli (3)  13:53+2613:55+262m22331.14615mWRMaroli, Gujarat
80NVSNavsari (3)  14:06+2414:08+252m22339.55514mWRNavsari, Gujarat
81AMLAmalsad (3)  14:25+2414:27+252m22355.13712mWRAmalsad, Gujarat
82BIMBilimora Junction (4)  14:36+2214:38+252m22360.73611mWRBilimora, Gujarat
83BLValsad (3)X  15:08+2015:10+242m32378.64915mWRValsad, Gujarat
84PADPardi (3)X  15:24 15:23+2115:26 15:25+202m--2389.34519mWRValsad, Gujarat
85UVDUdvada (3)  15:33+2015:35+212m--2395.35218mWRUdvada, Gujarat
86VAPIVapi (3)X  15:46+1915:48+242m22404.93427mWRVapi, Gujarat
87BLDBhilad (3)XO  16:08+2216:10+222m--2416.16933mWRBhilad, Gujarat
88SJNSanjan (3)XO  16:20+2016:22+202m--2427.75422mWRSanjan, Gujarat
89UBRUmbargam Road (3)X  16:28+2016:30+202m--2433.14730mWRUmbergaon, Gujarat
90DRDDahanu Road (5)XO  16:56+1216:58+132m--2453.47412mWRDahanu, Maharashtra
91VGNVangaon (3)O  17:08+1317:10+132m--2465.77111mWRDist. Palghar, Maharashtra
92BORBoisar (3)XO  17:18+1117:20+112m32475.16117mWRBoisar Tel.no-02525-266626, Maharashtra
93PLGPalghar (3)XO  17:31+1017:33+102m22486.45719mWRPalghar, Maharashtra
94VRVirar (8)XO  18:06+1018:08+112m42517.5526mWRDist. Palghar, Maharashtra
95BVIMumbai Borivali (8)  18:38+1018:40+122m52543.32219mWRMumbai - 400092, Maharashtra
96DDR•Mumbai Dadar Western (6)•  19:46+819:48+82m52567.1166mWRMumbai, Maharashtra
97BCTMumbai Central (9)  20:10+5-52573.0-3mWRMumbai 400008, Maharashtra
Scroll to Top
Scroll to Bottom